Current Weather

Multan Intl

Multan Intl, Pakistan (OPMT)

Report from: Monday, May 23, 2022 1:00 PM PKT
Current time: Monday, May 23, 2022 1:31 PM PKT

Nearby weather
Weather history
Weather forecast

Present weatherDust
Temperature35.0°C (95.0°F)
Heat index35.2°C (95.4°F)
Dew point16.0°C (60.8°F)
Winds 8 kts (4.1 m/s, 9.2 mph) Northeast (50°)
Visibility0.7 mi. (1.2 km)
Altimeter29.38 in.Hg (995 mB)
Relative humidity32 %
Density altitude3,133 ft. (955 m)
Remarks No significant changes expected in the next two hours
Flight conditions Low Instrument Meteorological Conditions
Raw dataOPMT 230800Z 05008KT 1200 DU NSC 35/16 Q0995 NOSIG
An error has occurred. This application may no longer respond until reloaded. Reload 🗙